Terminal Aerodrome Forecast
Issued by NWS Sterling, VA

Home | Current Version | Previous Version | Text Only | Print | Product List | Glossary On
Versions: 1 2 3 4 5 6 7 8 9 10 11 12 13 14 15 16 17 18 19 20 21 22 23 24 25 26
000
FTUS41 KLWX 302337
TAFIAD
TAF
KIAD 302337Z 3100/0106 29010KT P6SM FEW250
     FM310200 VRB04KT P6SM SCT050 BKN090
     FM311400 22008G16KT P6SM SCT050 BKN090
     FM311600 23015G27KT P6SM SCT050 BKN090
     FM312100 25015G27KT 5SM -SHRA OVC050
     FM312300 33012G22KT P6SM BKN050=

USA.gov is the U.S. government's official web portal to all federal, state and local government web resources and services.